sensor_id;sensor_type;location;lat;lon;timestamp;P1;durP1;ratioP1;P2;durP2;ratioP2
33184;SDS011;19550;42.872;25.494;2023-01-01T00:02:01;161.13;;;82.10;;
33184;SDS011;19550;42.872;25.494;2023-01-01T00:04:28;143.38;;;70.68;;
33184;SDS011;19550;42.872;25.494;2023-01-01T00:06:56;137.10;;;67.80;;
33184;SDS011;19550;42.872;25.494;2023-01-01T00:09:22;132.85;;;65.78;;
33184;SDS011;19550;42.872;25.494;2023-01-01T00:12:07;139.95;;;67.63;;
33184;SDS011;19550;42.872;25.494;2023-01-01T00:14:34;152.30;;;72.25;;
33184;SDS011;19550;42.872;25.494;2023-01-01T00:17:02;137.35;;;69.82;;
33184;SDS011;19550;42.872;25.494;2023-01-01T00:19:29;136.30;;;67.97;;
33184;SDS011;19550;42.872;25.494;2023-01-01T00:21:56;154.82;;;75.95;;
33184;SDS011;19550;42.872;25.494;2023-01-01T00:24:23;152.80;;;74.30;;
33184;SDS011;19550;42.872;25.494;2023-01-01T00:26:50;136.68;;;66.78;;
33184;SDS011;19550;42.872;25.494;2023-01-01T00:29:17;144.95;;;73.30;;
33184;SDS011;19550;42.872;25.494;2023-01-01T00:31:44;151.05;;;75.38;;
33184;SDS011;19550;42.872;25.494;2023-01-01T00:34:12;146.35;;;71.22;;
33184;SDS011;19550;42.872;25.494;2023-01-01T00:36:40;129.77;;;66.22;;
33184;SDS011;19550;42.872;25.494;2023-01-01T00:39:07;125.95;;;64.40;;
33184;SDS011;19550;42.872;25.494;2023-01-01T00:41:34;126.05;;;61.92;;
33184;SDS011;19550;42.872;25.494;2023-01-01T00:44:01;120.13;;;60.70;;
33184;SDS011;19550;42.872;25.494;2023-01-01T00:46:28;122.80;;;62.20;;
33184;SDS011;19550;42.872;25.494;2023-01-01T00:48:55;104.07;;;53.13;;
33184;SDS011;19550;42.872;25.494;2023-01-01T00:51:23;107.88;;;50.85;;
33184;SDS011;19550;42.872;25.494;2023-01-01T00:53:50;118.18;;;58.63;;
33184;SDS011;19550;42.872;25.494;2023-01-01T00:56:17;114.43;;;59.13;;
33184;SDS011;19550;42.872;25.494;2023-01-01T00:58:44;126.75;;;61.05;;
33184;SDS011;19550;42.872;25.494;2023-01-01T01:01:11;138.73;;;67.85;;
33184;SDS011;19550;42.872;25.494;2023-01-01T01:03:38;149.07;;;72.68;;
33184;SDS011;19550;42.872;25.494;2023-01-01T01:06:08;156.25;;;74.93;;
33184;SDS011;19550;42.872;25.494;2023-01-01T01:08:40;127.43;;;63.92;;
33184;SDS011;19550;42.872;25.494;2023-01-01T01:11:09;119.97;;;61.28;;
33184;SDS011;19550;42.872;25.494;2023-01-01T01:13:37;130.67;;;63.77;;
33184;SDS011;19550;42.872;25.494;2023-01-01T01:16:08;123.63;;;60.78;;
33184;SDS011;19550;42.872;25.494;2023-01-01T01:18:37;124.82;;;58.65;;
33184;SDS011;19550;42.872;25.494;2023-01-01T01:21:04;125.70;;;59.25;;
33184;SDS011;19550;42.872;25.494;2023-01-01T01:23:31;101.78;;;49.58;;
33184;SDS011;19550;42.872;25.494;2023-01-01T01:26:07;84.75;;;43.60;;
33184;SDS011;19550;42.872;25.494;2023-01-01T01:28:35;99.38;;;50.67;;
33184;SDS011;19550;42.872;25.494;2023-01-01T01:31:02;101.78;;;51.78;;
33184;SDS011;19550;42.872;25.494;2023-01-01T01:33:30;98.63;;;50.10;;
33184;SDS011;19550;42.872;25.494;2023-01-01T01:35:57;94.38;;;46.33;;
33184;SDS011;19550;42.872;25.494;2023-01-01T01:38:24;98.35;;;48.30;;
33184;SDS011;19550;42.872;25.494;2023-01-01T01:40:51;95.78;;;47.63;;
33184;SDS011;19550;42.872;25.494;2023-01-01T01:43:21;103.63;;;51.60;;
33184;SDS011;19550;42.872;25.494;2023-01-01T01:45:52;101.60;;;50.03;;
33184;SDS011;19550;42.872;25.494;2023-01-01T01:48:21;109.90;;;51.80;;
33184;SDS011;19550;42.872;25.494;2023-01-01T01:50:49;113.53;;;55.17;;
33184;SDS011;19550;42.872;25.494;2023-01-01T01:53:20;119.32;;;56.35;;
33184;SDS011;19550;42.872;25.494;2023-01-01T01:55:52;122.10;;;58.03;;
33184;SDS011;19550;42.872;25.494;2023-01-01T01:58:24;110.55;;;55.03;;
33184;SDS011;19550;42.872;25.494;2023-01-01T02:00:53;127.13;;;57.90;;
33184;SDS011;19550;42.872;25.494;2023-01-01T02:03:21;115.43;;;58.13;;
33184;SDS011;19550;42.872;25.494;2023-01-01T02:05:52;118.65;;;54.55;;
33184;SDS011;19550;42.872;25.494;2023-01-01T02:08:19;88.88;;;44.40;;
33184;SDS011;19550;42.872;25.494;2023-01-01T02:10:47;92.00;;;45.42;;
33184;SDS011;19550;42.872;25.494;2023-01-01T02:13:14;101.72;;;48.92;;
33184;SDS011;19550;42.872;25.494;2023-01-01T02:15:43;100.20;;;47.85;;
33184;SDS011;19550;42.872;25.494;2023-01-01T02:18:17;91.38;;;48.00;;
33184;SDS011;19550;42.872;25.494;2023-01-01T02:20:51;95.85;;;44.38;;
33184;SDS011;19550;42.872;25.494;2023-01-01T02:23:40;92.22;;;46.75;;
33184;SDS011;19550;42.872;25.494;2023-01-01T02:32:08;84.90;;;42.78;;
33184;SDS011;19550;42.872;25.494;2023-01-01T02:34:39;85.72;;;42.65;;
33184;SDS011;19550;42.872;25.494;2023-01-01T02:37:09;93.15;;;44.28;;
33184;SDS011;19550;42.872;25.494;2023-01-01T02:39:43;86.53;;;42.63;;
33184;SDS011;19550;42.872;25.494;2023-01-01T02:42:14;83.10;;;42.30;;
33184;SDS011;19550;42.872;25.494;2023-01-01T02:44:44;79.65;;;41.58;;
33184;SDS011;19550;42.872;25.494;2023-01-01T02:47:16;85.07;;;42.60;;
33184;SDS011;19550;42.872;25.494;2023-01-01T02:49:52;76.57;;;41.10;;
33184;SDS011;19550;42.872;25.494;2023-01-01T02:52:34;96.60;;;43.58;;
33184;SDS011;19550;42.872;25.494;2023-01-01T02:55:13;102.13;;;47.67;;
33184;SDS011;19550;42.872;25.494;2023-01-01T03:00:24;89.55;;;43.55;;
33184;SDS011;19550;42.872;25.494;2023-01-01T03:03:07;104.43;;;49.05;;
33184;SDS011;19550;42.872;25.494;2023-01-01T03:05:46;95.93;;;47.58;;
33184;SDS011;19550;42.872;25.494;2023-01-01T03:08:38;98.22;;;47.83;;
33184;SDS011;19550;42.872;25.494;2023-01-01T03:11:13;105.72;;;50.97;;
33184;SDS011;19550;42.872;25.494;2023-01-01T03:13:45;101.03;;;47.92;;
33184;SDS011;19550;42.872;25.494;2023-01-01T03:16:20;100.18;;;50.60;;
33184;SDS011;19550;42.872;25.494;2023-01-01T03:18:52;86.63;;;44.97;;
33184;SDS011;19550;42.872;25.494;2023-01-01T03:21:42;85.75;;;42.78;;
33184;SDS011;19550;42.872;25.494;2023-01-01T03:24:14;87.53;;;43.15;;
33184;SDS011;19550;42.872;25.494;2023-01-01T03:26:46;89.32;;;44.33;;
33184;SDS011;19550;42.872;25.494;2023-01-01T03:29:17;89.38;;;43.15;;
33184;SDS011;19550;42.872;25.494;2023-01-01T03:31:46;72.78;;;35.88;;
33184;SDS011;19550;42.872;25.494;2023-01-01T03:34:20;76.10;;;37.70;;
33184;SDS011;19550;42.872;25.494;2023-01-01T03:36:53;75.50;;;37.42;;
33184;SDS011;19550;42.872;25.494;2023-01-01T03:39:23;79.15;;;37.35;;
33184;SDS011;19550;42.872;25.494;2023-01-01T03:41:55;78.90;;;36.25;;
33184;SDS011;19550;42.872;25.494;2023-01-01T03:44:29;77.88;;;37.13;;
33184;SDS011;19550;42.872;25.494;2023-01-01T03:47:02;69.75;;;36.30;;
33184;SDS011;19550;42.872;25.494;2023-01-01T03:49:31;81.78;;;37.97;;
33184;SDS011;19550;42.872;25.494;2023-01-01T03:52:00;63.83;;;33.22;;
33184;SDS011;19550;42.872;25.494;2023-01-01T03:54:37;70.13;;;34.97;;
33184;SDS011;19550;42.872;25.494;2023-01-01T03:57:12;66.85;;;34.53;;
33184;SDS011;19550;42.872;25.494;2023-01-01T03:59:48;71.03;;;35.05;;
33184;SDS011;19550;42.872;25.494;2023-01-01T04:02:26;71.90;;;33.97;;
33184;SDS011;19550;42.872;25.494;2023-01-01T04:04:58;64.22;;;32.53;;
33184;SDS011;19550;42.872;25.494;2023-01-01T04:07:27;69.55;;;33.28;;
33184;SDS011;19550;42.872;25.494;2023-01-01T04:09:55;58.78;;;30.70;;
33184;SDS011;19550;42.872;25.494;2023-01-01T04:12:27;55.10;;;27.00;;
33184;SDS011;19550;42.872;25.494;2023-01-01T04:14:55;46.47;;;24.50;;
33184;SDS011;19550;42.872;25.494;2023-01-01T04:17:22;54.67;;;28.10;;
33184;SDS011;19550;42.872;25.494;2023-01-01T04:19:50;54.45;;;28.25;;
33184;SDS011;19550;42.872;25.494;2023-01-01T04:22:17;47.90;;;24.17;;
33184;SDS011;19550;42.872;25.494;2023-01-01T04:27:13;43.60;;;22.00;;
33184;SDS011;19550;42.872;25.494;2023-01-01T04:29:40;47.67;;;24.40;;
33184;SDS011;19550;42.872;25.494;2023-01-01T04:32:07;45.85;;;22.88;;
33184;SDS011;19550;42.872;25.494;2023-01-01T04:34:34;50.13;;;24.88;;
33184;SDS011;19550;42.872;25.494;2023-01-01T04:37:02;54.63;;;26.50;;
33184;SDS011;19550;42.872;25.494;2023-01-01T04:39:30;55.60;;;28.10;;
33184;SDS011;19550;42.872;25.494;2023-01-01T04:41:57;53.88;;;25.63;;
33184;SDS011;19550;42.872;25.494;2023-01-01T04:44:23;50.55;;;25.35;;
33184;SDS011;19550;42.872;25.494;2023-01-01T04:46:51;48.47;;;25.63;;
33184;SDS011;19550;42.872;25.494;2023-01-01T04:49:17;57.20;;;26.35;;
33184;SDS011;19550;42.872;25.494;2023-01-01T04:51:45;62.58;;;30.33;;
33184;SDS011;19550;42.872;25.494;2023-01-01T04:54:13;63.45;;;31.65;;
33184;SDS011;19550;42.872;25.494;2023-01-01T04:56:40;69.57;;;34.63;;
33184;SDS011;19550;42.872;25.494;2023-01-01T04:59:07;71.43;;;35.97;;
33184;SDS011;19550;42.872;25.494;2023-01-01T05:01:34;59.70;;;29.88;;
33184;SDS011;19550;42.872;25.494;2023-01-01T05:04:01;54.63;;;29.35;;
33184;SDS011;19550;42.872;25.494;2023-01-01T05:06:30;51.72;;;28.63;;
33184;SDS011;19550;42.872;25.494;2023-01-01T05:08:57;51.67;;;27.90;;
33184;SDS011;19550;42.872;25.494;2023-01-01T05:11:27;53.42;;;25.25;;
33184;SDS011;19550;42.872;25.494;2023-01-01T05:13:55;50.17;;;25.33;;
33184;SDS011;19550;42.872;25.494;2023-01-01T05:16:25;52.72;;;26.05;;
33184;SDS011;19550;42.872;25.494;2023-01-01T05:18:54;50.28;;;25.17;;
33184;SDS011;19550;42.872;25.494;2023-01-01T05:21:22;54.70;;;24.80;;
33184;SDS011;19550;42.872;25.494;2023-01-01T05:23:52;44.60;;;23.45;;
33184;SDS011;19550;42.872;25.494;2023-01-01T05:28:50;44.47;;;22.50;;
33184;SDS011;19550;42.872;25.494;2023-01-01T05:31:17;39.10;;;20.30;;
33184;SDS011;19550;42.872;25.494;2023-01-01T05:33:46;40.88;;;21.73;;
33184;SDS011;19550;42.872;25.494;2023-01-01T05:36:15;47.47;;;22.80;;
33184;SDS011;19550;42.872;25.494;2023-01-01T05:38:43;42.17;;;19.58;;
33184;SDS011;19550;42.872;25.494;2023-01-01T05:41:11;62.15;;;29.77;;
33184;SDS011;19550;42.872;25.494;2023-01-01T05:43:39;65.68;;;32.45;;
33184;SDS011;19550;42.872;25.494;2023-01-01T05:46:09;63.97;;;30.92;;
33184;SDS011;19550;42.872;25.494;2023-01-01T05:48:37;55.35;;;29.35;;
33184;SDS011;19550;42.872;25.494;2023-01-01T05:51:06;58.75;;;31.30;;
33184;SDS011;19550;42.872;25.494;2023-01-01T05:53:34;60.88;;;28.50;;
33184;SDS011;19550;42.872;25.494;2023-01-01T05:56:01;67.35;;;33.80;;
33184;SDS011;19550;42.872;25.494;2023-01-01T05:58:29;49.15;;;25.17;;
33184;SDS011;19550;42.872;25.494;2023-01-01T06:01:00;44.30;;;22.67;;
33184;SDS011;19550;42.872;25.494;2023-01-01T06:03:32;50.30;;;26.42;;
33184;SDS011;19550;42.872;25.494;2023-01-01T06:06:01;55.67;;;30.30;;
33184;SDS011;19550;42.872;25.494;2023-01-01T06:08:29;54.97;;;29.70;;
33184;SDS011;19550;42.872;25.494;2023-01-01T06:10:57;58.03;;;30.23;;
33184;SDS011;19550;42.872;25.494;2023-01-01T06:13:25;56.63;;;30.05;;
33184;SDS011;19550;42.872;25.494;2023-01-01T06:15:52;50.55;;;25.65;;
33184;SDS011;19550;42.872;25.494;2023-01-01T06:18:20;44.25;;;25.33;;
33184;SDS011;19550;42.872;25.494;2023-01-01T06:20:49;48.85;;;25.20;;
33184;SDS011;19550;42.872;25.494;2023-01-01T06:23:16;45.80;;;23.40;;
33184;SDS011;19550;42.872;25.494;2023-01-01T06:25:43;49.20;;;26.75;;
33184;SDS011;19550;42.872;25.494;2023-01-01T06:28:10;50.40;;;26.23;;
33184;SDS011;19550;42.872;25.494;2023-01-01T06:30:37;44.03;;;23.83;;
33184;SDS011;19550;42.872;25.494;2023-01-01T06:33:04;44.47;;;23.73;;
33184;SDS011;19550;42.872;25.494;2023-01-01T06:35:31;41.55;;;21.83;;
33184;SDS011;19550;42.872;25.494;2023-01-01T06:37:59;40.45;;;20.17;;
33184;SDS011;19550;42.872;25.494;2023-01-01T06:40:26;56.50;;;28.40;;
33184;SDS011;19550;42.872;25.494;2023-01-01T06:42:53;54.88;;;26.73;;
33184;SDS011;19550;42.872;25.494;2023-01-01T06:45:20;62.22;;;30.85;;
33184;SDS011;19550;42.872;25.494;2023-01-01T06:47:47;102.60;;;45.25;;
33184;SDS011;19550;42.872;25.494;2023-01-01T06:50:14;94.00;;;43.28;;
33184;SDS011;19550;42.872;25.494;2023-01-01T06:52:41;81.75;;;39.90;;
33184;SDS011;19550;42.872;25.494;2023-01-01T06:55:09;98.80;;;52.10;;
33184;SDS011;19550;42.872;25.494;2023-01-01T06:57:36;110.82;;;58.50;;
33184;SDS011;19550;42.872;25.494;2023-01-01T07:00:03;113.38;;;58.22;;
33184;SDS011;19550;42.872;25.494;2023-01-01T07:02:31;76.45;;;42.70;;
33184;SDS011;19550;42.872;25.494;2023-01-01T07:04:58;91.80;;;47.55;;
33184;SDS011;19550;42.872;25.494;2023-01-01T07:07:25;114.70;;;56.95;;
33184;SDS011;19550;42.872;25.494;2023-01-01T07:09:52;132.18;;;72.50;;
33184;SDS011;19550;42.872;25.494;2023-01-01T07:12:20;137.93;;;76.45;;
33184;SDS011;19550;42.872;25.494;2023-01-01T07:14:47;144.10;;;80.47;;
33184;SDS011;19550;42.872;25.494;2023-01-01T07:17:13;132.75;;;77.35;;
33184;SDS011;19550;42.872;25.494;2023-01-01T07:19:40;118.88;;;70.00;;
33184;SDS011;19550;42.872;25.494;2023-01-01T07:22:07;131.32;;;74.80;;
33184;SDS011;19550;42.872;25.494;2023-01-01T07:24:36;127.15;;;73.38;;
33184;SDS011;19550;42.872;25.494;2023-01-01T07:27:03;130.93;;;77.93;;
33184;SDS011;19550;42.872;25.494;2023-01-01T07:29:32;125.88;;;72.35;;
33184;SDS011;19550;42.872;25.494;2023-01-01T07:31:58;121.60;;;69.60;;
33184;SDS011;19550;42.872;25.494;2023-01-01T07:34:26;112.28;;;68.03;;
33184;SDS011;19550;42.872;25.494;2023-01-01T07:36:53;107.00;;;66.75;;
33184;SDS011;19550;42.872;25.494;2023-01-01T07:39:20;102.90;;;61.35;;
33184;SDS011;19550;42.872;25.494;2023-01-01T07:41:47;112.28;;;66.30;;
33184;SDS011;19550;42.872;25.494;2023-01-01T07:44:14;106.18;;;64.60;;
33184;SDS011;19550;42.872;25.494;2023-01-01T07:46:42;101.13;;;62.47;;
33184;SDS011;19550;42.872;25.494;2023-01-01T07:49:09;98.88;;;61.80;;
33184;SDS011;19550;42.872;25.494;2023-01-01T07:51:36;100.40;;;60.70;;
33184;SDS011;19550;42.872;25.494;2023-01-01T07:54:03;98.20;;;60.70;;
33184;SDS011;19550;42.872;25.494;2023-01-01T07:56:30;102.65;;;64.20;;
33184;SDS011;19550;42.872;25.494;2023-01-01T07:58:58;105.43;;;65.63;;
33184;SDS011;19550;42.872;25.494;2023-01-01T08:01:25;103.35;;;65.53;;
33184;SDS011;19550;42.872;25.494;2023-01-01T08:03:53;101.10;;;64.07;;
33184;SDS011;19550;42.872;25.494;2023-01-01T08:06:20;106.68;;;65.03;;
33184;SDS011;19550;42.872;25.494;2023-01-01T08:08:47;106.03;;;66.25;;
33184;SDS011;19550;42.872;25.494;2023-01-01T08:11:14;106.18;;;66.85;;
33184;SDS011;19550;42.872;25.494;2023-01-01T08:13:41;104.30;;;64.18;;
33184;SDS011;19550;42.872;25.494;2023-01-01T08:16:08;92.70;;;59.55;;
33184;SDS011;19550;42.872;25.494;2023-01-01T08:18:35;81.53;;;50.45;;
33184;SDS011;19550;42.872;25.494;2023-01-01T08:21:04;95.60;;;61.20;;
33184;SDS011;19550;42.872;25.494;2023-01-01T08:23:31;94.77;;;59.23;;
33184;SDS011;19550;42.872;25.494;2023-01-01T08:25:58;96.97;;;60.28;;
33184;SDS011;19550;42.872;25.494;2023-01-01T08:28:26;89.15;;;57.67;;
33184;SDS011;19550;42.872;25.494;2023-01-01T08:30:54;92.68;;;57.58;;
33184;SDS011;19550;42.872;25.494;2023-01-01T08:33:20;84.82;;;56.05;;
33184;SDS011;19550;42.872;25.494;2023-01-01T08:35:49;92.00;;;59.85;;
33184;SDS011;19550;42.872;25.494;2023-01-01T08:38:17;85.97;;;54.72;;
33184;SDS011;19550;42.872;25.494;2023-01-01T08:40:44;85.82;;;55.35;;
33184;SDS011;19550;42.872;25.494;2023-01-01T08:43:11;82.72;;;53.17;;
33184;SDS011;19550;42.872;25.494;2023-01-01T08:45:38;79.47;;;53.20;;
33184;SDS011;19550;42.872;25.494;2023-01-01T08:48:05;81.25;;;52.83;;
33184;SDS011;19550;42.872;25.494;2023-01-01T08:50:32;80.50;;;52.30;;
33184;SDS011;19550;42.872;25.494;2023-01-01T08:52:59;79.30;;;53.25;;
33184;SDS011;19550;42.872;25.494;2023-01-01T08:55:27;76.85;;;52.17;;
33184;SDS011;19550;42.872;25.494;2023-01-01T08:57:55;73.97;;;49.30;;
33184;SDS011;19550;42.872;25.494;2023-01-01T09:00:22;79.20;;;51.67;;
33184;SDS011;19550;42.872;25.494;2023-01-01T09:02:49;85.53;;;53.75;;
33184;SDS011;19550;42.872;25.494;2023-01-01T09:05:16;76.15;;;52.22;;
33184;SDS011;19550;42.872;25.494;2023-01-01T09:07:42;72.82;;;49.67;;
33184;SDS011;19550;42.872;25.494;2023-01-01T09:10:09;71.85;;;49.05;;
33184;SDS011;19550;42.872;25.494;2023-01-01T09:12:38;65.50;;;45.95;;
33184;SDS011;19550;42.872;25.494;2023-01-01T09:15:05;75.22;;;48.42;;
33184;SDS011;19550;42.872;25.494;2023-01-01T09:17:32;68.53;;;48.38;;
33184;SDS011;19550;42.872;25.494;2023-01-01T09:19:59;72.88;;;48.28;;
33184;SDS011;19550;42.872;25.494;2023-01-01T09:22:26;68.75;;;47.92;;
33184;SDS011;19550;42.872;25.494;2023-01-01T09:24:53;76.28;;;51.80;;
33184;SDS011;19550;42.872;25.494;2023-01-01T09:27:20;71.70;;;49.22;;
33184;SDS011;19550;42.872;25.494;2023-01-01T09:29:48;76.70;;;50.50;;
33184;SDS011;19550;42.872;25.494;2023-01-01T09:32:15;77.07;;;51.88;;
33184;SDS011;19550;42.872;25.494;2023-01-01T09:34:42;72.50;;;49.28;;
33184;SDS011;19550;42.872;25.494;2023-01-01T09:37:09;74.28;;;51.67;;
33184;SDS011;19550;42.872;25.494;2023-01-01T09:39:36;74.97;;;50.10;;
33184;SDS011;19550;42.872;25.494;2023-01-01T09:42:05;63.33;;;43.50;;
33184;SDS011;19550;42.872;25.494;2023-01-01T09:44:48;73.55;;;47.50;;
33184;SDS011;19550;42.872;25.494;2023-01-01T09:47:31;63.47;;;42.83;;
33184;SDS011;19550;42.872;25.494;2023-01-01T09:50:03;47.72;;;33.33;;
33184;SDS011;19550;42.872;25.494;2023-01-01T09:52:36;34.97;;;25.67;;
33184;SDS011;19550;42.872;25.494;2023-01-01T09:55:10;28.27;;;19.67;;
33184;SDS011;19550;42.872;25.494;2023-01-01T09:57:43;31.83;;;19.80;;
33184;SDS011;19550;42.872;25.494;2023-01-01T10:00:14;28.13;;;17.70;;
33184;SDS011;19550;42.872;25.494;2023-01-01T10:02:46;22.73;;;15.85;;
33184;SDS011;19550;42.872;25.494;2023-01-01T10:05:26;21.60;;;15.98;;
33184;SDS011;19550;42.872;25.494;2023-01-01T10:08:00;20.52;;;14.45;;
33184;SDS011;19550;42.872;25.494;2023-01-01T10:10:34;13.77;;;10.52;;
33184;SDS011;19550;42.872;25.494;2023-01-01T10:13:06;12.85;;;8.30;;
33184;SDS011;19550;42.872;25.494;2023-01-01T10:15:47;14.18;;;8.10;;
33184;SDS011;19550;42.872;25.494;2023-01-01T10:18:20;10.65;;;8.27;;
33184;SDS011;19550;42.872;25.494;2023-01-01T10:20:52;14.13;;;9.25;;
33184;SDS011;19550;42.872;25.494;2023-01-01T10:23:24;13.25;;;8.55;;
33184;SDS011;19550;42.872;25.494;2023-01-01T10:25:54;15.13;;;9.52;;
33184;SDS011;19550;42.872;25.494;2023-01-01T10:28:24;11.60;;;8.10;;
33184;SDS011;19550;42.872;25.494;2023-01-01T10:30:59;8.85;;;3.88;;
33184;SDS011;19550;42.872;25.494;2023-01-01T10:33:40;8.63;;;5.53;;
33184;SDS011;19550;42.872;25.494;2023-01-01T10:36:08;6.25;;;3.92;;
33184;SDS011;19550;42.872;25.494;2023-01-01T10:38:38;9.05;;;5.88;;
33184;SDS011;19550;42.872;25.494;2023-01-01T10:41:06;7.68;;;3.83;;
33184;SDS011;19550;42.872;25.494;2023-01-01T10:43:35;8.68;;;4.32;;
33184;SDS011;19550;42.872;25.494;2023-01-01T10:46:04;3.22;;;1.90;;
33184;SDS011;19550;42.872;25.494;2023-01-01T10:48:31;17.52;;;8.20;;
33184;SDS011;19550;42.872;25.494;2023-01-01T10:51:00;10.30;;;4.93;;
33184;SDS011;19550;42.872;25.494;2023-01-01T10:53:29;40.22;;;19.90;;
33184;SDS011;19550;42.872;25.494;2023-01-01T10:55:58;26.90;;;14.40;;
33184;SDS011;19550;42.872;25.494;2023-01-01T10:58:35;8.98;;;4.50;;
33184;SDS011;19550;42.872;25.494;2023-01-01T11:01:06;4.93;;;2.35;;
33184;SDS011;19550;42.872;25.494;2023-01-01T11:03:34;9.30;;;5.65;;
33184;SDS011;19550;42.872;25.494;2023-01-01T11:06:09;13.13;;;5.97;;
33184;SDS011;19550;42.872;25.494;2023-01-01T11:08:46;11.32;;;7.05;;
33184;SDS011;19550;42.872;25.494;2023-01-01T11:11:22;5.13;;;3.13;;
33184;SDS011;19550;42.872;25.494;2023-01-01T11:13:54;4.47;;;2.00;;
33184;SDS011;19550;42.872;25.494;2023-01-01T11:16:24;5.90;;;4.03;;
33184;SDS011;19550;42.872;25.494;2023-01-01T11:18:58;4.95;;;3.05;;
33184;SDS011;19550;42.872;25.494;2023-01-01T11:21:27;12.27;;;7.05;;
33184;SDS011;19550;42.872;25.494;2023-01-01T11:24:08;6.43;;;2.75;;
33184;SDS011;19550;42.872;25.494;2023-01-01T11:26:42;4.43;;;2.05;;
33184;SDS011;19550;42.872;25.494;2023-01-01T11:29:16;6.03;;;3.92;;
33184;SDS011;19550;42.872;25.494;2023-01-01T11:31:48;7.75;;;3.63;;
33184;SDS011;19550;42.872;25.494;2023-01-01T11:34:22;3.92;;;2.67;;
33184;SDS011;19550;42.872;25.494;2023-01-01T11:37:04;5.38;;;2.30;;
33184;SDS011;19550;42.872;25.494;2023-01-01T11:39:33;8.02;;;4.05;;
33184;SDS011;19550;42.872;25.494;2023-01-01T11:42:01;4.60;;;2.35;;
33184;SDS011;19550;42.872;25.494;2023-01-01T11:44:33;5.60;;;2.45;;
33184;SDS011;19550;42.872;25.494;2023-01-01T11:47:04;4.88;;;2.22;;
33184;SDS011;19550;42.872;25.494;2023-01-01T11:49:32;7.93;;;2.20;;
33184;SDS011;19550;42.872;25.494;2023-01-01T11:52:00;3.65;;;2.15;;
33184;SDS011;19550;42.872;25.494;2023-01-01T11:54:56;3.97;;;1.90;;
33184;SDS011;19550;42.872;25.494;2023-01-01T11:57:28;8.75;;;3.00;;
33184;SDS011;19550;42.872;25.494;2023-01-01T11:59:58;7.68;;;2.72;;
33184;SDS011;19550;42.872;25.494;2023-01-01T12:02:31;5.68;;;2.50;;
33184;SDS011;19550;42.872;25.494;2023-01-01T12:05:04;5.88;;;2.20;;
33184;SDS011;19550;42.872;25.494;2023-01-01T12:07:38;8.65;;;5.22;;
33184;SDS011;19550;42.872;25.494;2023-01-01T12:10:08;8.43;;;2.75;;
33184;SDS011;19550;42.872;25.494;2023-01-01T12:12:45;7.63;;;4.95;;
33184;SDS011;19550;42.872;25.494;2023-01-01T12:15:17;6.72;;;3.25;;
33184;SDS011;19550;42.872;25.494;2023-01-01T12:17:53;10.25;;;6.38;;
33184;SDS011;19550;42.872;25.494;2023-01-01T12:20:29;4.90;;;3.43;;
33184;SDS011;19550;42.872;25.494;2023-01-01T12:23:01;15.73;;;8.20;;
33184;SDS011;19550;42.872;25.494;2023-01-01T12:25:31;6.20;;;3.65;;
33184;SDS011;19550;42.872;25.494;2023-01-01T12:28:11;7.90;;;3.88;;
33184;SDS011;19550;42.872;25.494;2023-01-01T12:30:54;3.70;;;2.78;;
33184;SDS011;19550;42.872;25.494;2023-01-01T12:33:35;5.82;;;2.00;;
33184;SDS011;19550;42.872;25.494;2023-01-01T12:36:20;5.72;;;2.20;;
33184;SDS011;19550;42.872;25.494;2023-01-01T12:42:10;5.05;;;2.90;;
33184;SDS011;19550;42.872;25.494;2023-01-01T12:44:47;2.28;;;1.75;;
33184;SDS011;19550;42.872;25.494;2023-01-01T12:47:28;3.38;;;2.33;;
33184;SDS011;19550;42.872;25.494;2023-01-01T12:50:09;4.85;;;2.80;;
33184;SDS011;19550;42.872;25.494;2023-01-01T12:52:48;7.90;;;4.88;;
33184;SDS011;19550;42.872;25.494;2023-01-01T12:55:35;6.18;;;2.55;;
33184;SDS011;19550;42.872;25.494;2023-01-01T12:58:13;7.50;;;3.58;;
33184;SDS011;19550;42.872;25.494;2023-01-01T13:00:47;2.70;;;1.88;;
33184;SDS011;19550;42.872;25.494;2023-01-01T13:03:20;3.42;;;2.28;;
33184;SDS011;19550;42.872;25.494;2023-01-01T13:05:52;7.93;;;6.00;;
33184;SDS011;19550;42.872;25.494;2023-01-01T13:08:21;9.18;;;3.92;;
33184;SDS011;19550;42.872;25.494;2023-01-01T13:10:49;11.30;;;9.55;;
33184;SDS011;19550;42.872;25.494;2023-01-01T13:13:18;9.63;;;7.07;;
33184;SDS011;19550;42.872;25.494;2023-01-01T13:15:47;5.95;;;4.07;;
33184;SDS011;19550;42.872;25.494;2023-01-01T13:18:21;22.02;;;19.08;;
33184;SDS011;19550;42.872;25.494;2023-01-01T13:20:55;7.28;;;6.00;;
33184;SDS011;19550;42.872;25.494;2023-01-01T13:23:40;6.55;;;2.92;;
33184;SDS011;19550;42.872;25.494;2023-01-01T13:32:03;21.60;;;10.77;;
33184;SDS011;19550;42.872;25.494;2023-01-01T13:34:36;24.25;;;15.43;;
33184;SDS011;19550;42.872;25.494;2023-01-01T13:42:36;44.35;;;31.27;;
33184;SDS011;19550;42.872;25.494;2023-01-01T13:45:12;44.13;;;32.45;;
33184;SDS011;19550;42.872;25.494;2023-01-01T13:47:50;21.13;;;16.88;;
33184;SDS011;19550;42.872;25.494;2023-01-01T13:50:32;20.65;;;17.95;;
33184;SDS011;19550;42.872;25.494;2023-01-01T13:56:11;20.33;;;15.40;;
33184;SDS011;19550;42.872;25.494;2023-01-01T13:58:59;45.15;;;40.67;;
33184;SDS011;19550;42.872;25.494;2023-01-01T14:01:48;27.00;;;23.17;;
33184;SDS011;19550;42.872;25.494;2023-01-01T14:04:26;69.95;;;38.67;;
33184;SDS011;19550;42.872;25.494;2023-01-01T14:07:02;71.57;;;38.90;;
33184;SDS011;19550;42.872;25.494;2023-01-01T14:09:37;43.05;;;22.50;;
33184;SDS011;19550;42.872;25.494;2023-01-01T14:12:08;75.03;;;39.92;;
33184;SDS011;19550;42.872;25.494;2023-01-01T14:14:35;35.20;;;19.52;;
33184;SDS011;19550;42.872;25.494;2023-01-01T14:17:04;46.20;;;21.50;;
33184;SDS011;19550;42.872;25.494;2023-01-01T14:21:59;22.73;;;11.35;;
33184;SDS011;19550;42.872;25.494;2023-01-01T14:24:26;44.90;;;19.05;;
33184;SDS011;19550;42.872;25.494;2023-01-01T14:26:55;75.38;;;33.78;;
33184;SDS011;19550;42.872;25.494;2023-01-01T14:29:24;26.60;;;12.13;;
33184;SDS011;19550;42.872;25.494;2023-01-01T14:31:53;29.65;;;20.77;;
33184;SDS011;19550;42.872;25.494;2023-01-01T14:34:23;27.85;;;19.88;;
33184;SDS011;19550;42.872;25.494;2023-01-01T14:36:53;17.13;;;11.85;;
33184;SDS011;19550;42.872;25.494;2023-01-01T14:39:24;14.50;;;8.55;;
33184;SDS011;19550;42.872;25.494;2023-01-01T14:41:52;16.88;;;12.85;;
33184;SDS011;19550;42.872;25.494;2023-01-01T14:44:23;11.27;;;7.63;;
33184;SDS011;19550;42.872;25.494;2023-01-01T14:46:54;10.65;;;6.50;;
33184;SDS011;19550;42.872;25.494;2023-01-01T14:49:22;12.35;;;7.78;;
33184;SDS011;19550;42.872;25.494;2023-01-01T14:51:55;18.65;;;11.88;;
33184;SDS011;19550;42.872;25.494;2023-01-01T14:54:28;57.75;;;36.97;;
33184;SDS011;19550;42.872;25.494;2023-01-01T14:56:59;30.35;;;18.65;;
33184;SDS011;19550;42.872;25.494;2023-01-01T14:59:27;16.08;;;9.75;;
33184;SDS011;19550;42.872;25.494;2023-01-01T15:01:59;24.35;;;13.15;;
33184;SDS011;19550;42.872;25.494;2023-01-01T15:04:28;41.25;;;21.70;;